Terminal Aerodrome Forecast
Issued by NWS

Home | Current Version | Previous Version | Text Only | Print | Product List | Glossary Off
Versions: 1 2 3 4 5 6 7 8 9 10 11 12 13 14 15 16 17 18 19 20 21 22 23 24 25 26 27

000
FTUS45 KGGW 281100
TAFOLF
TAF
KOLF 281138Z 2812/2912 25025G35KT 6SM -RA BKN015 OVC023
     FM281500 27035G49KT 3SM RA BKN009 OVC035
     FM290000 29028G39KT P6SM BKN023 BKN080
     FM290300 28020KT P6SM BKN070 BKN090
     FM290600 27013KT P6SM SCT230=

USA.gov is the U.S. government's official web portal to all federal, state and local government web resources and services.